createdAt,value
2023-04-15T00:01:43.910Z,9.10
2023-04-15T00:04:46.539Z,9.10
2023-04-15T00:07:48.246Z,9.40
2023-04-15T00:11:02.560Z,10.20
2023-04-15T00:14:04.406Z,9.00
2023-04-15T00:17:06.020Z,9.10
2023-04-15T00:20:08.011Z,9.40
2023-04-15T00:23:09.665Z,9.10
2023-04-15T00:26:11.631Z,9.40
2023-04-15T00:29:13.604Z,10.30
2023-04-15T00:32:15.773Z,9.10
2023-04-15T00:35:17.381Z,9.00
2023-04-15T00:38:19.441Z,9.50
2023-04-15T00:41:21.288Z,9.00
2023-04-15T00:44:23.043Z,11.00
2023-04-15T00:47:25.093Z,9.00
2023-04-15T00:50:26.718Z,8.40
2023-04-15T00:53:28.322Z,8.40
2023-04-15T00:56:30.431Z,8.60
2023-04-15T00:59:33.851Z,8.40
2023-04-15T01:02:36.656Z,8.60
2023-04-15T01:05:39.249Z,8.90
2023-04-15T01:08:41.341Z,8.70
2023-04-15T01:11:43.042Z,8.80
2023-04-15T01:14:45.114Z,8.50
2023-04-15T01:17:47.233Z,8.00
2023-04-15T01:20:48.898Z,8.30
2023-04-15T01:23:53.086Z,8.40
2023-04-15T01:26:54.821Z,8.40
2023-04-15T01:29:56.583Z,8.40
2023-04-15T01:32:58.164Z,8.70
2023-04-15T01:35:59.797Z,8.50
2023-04-15T01:39:01.634Z,8.30
2023-04-15T01:42:04.004Z,10.20
2023-04-15T01:45:07.063Z,8.20
2023-04-15T01:48:09.721Z,8.60
2023-04-15T01:51:11.970Z,8.30
2023-04-15T01:54:13.573Z,8.20
2023-04-15T01:57:15.148Z,8.50
2023-04-15T02:00:17.542Z,6.90
2023-04-15T02:03:19.445Z,7.90
2023-04-15T02:06:21.098Z,8.00
2023-04-15T02:09:22.812Z,7.80
2023-04-15T02:12:24.368Z,8.20
2023-04-15T02:15:25.966Z,8.00
2023-04-15T02:18:27.603Z,8.10
2023-04-15T02:21:29.748Z,7.90
2023-04-15T02:24:31.540Z,8.50
2023-04-15T02:27:33.146Z,8.40
2023-04-15T02:30:34.799Z,9.50
2023-04-15T02:33:37.683Z,7.80
2023-04-15T02:36:40.568Z,8.20
2023-04-15T02:39:42.124Z,8.30
2023-04-15T02:42:44.230Z,7.90
2023-04-15T02:45:47.099Z,8.00
2023-04-15T02:48:49.601Z,8.30
2023-04-15T02:51:51.454Z,7.70
2023-04-15T02:54:54.561Z,8.10
2023-04-15T02:57:57.126Z,8.20
2023-04-15T03:00:58.682Z,7.60
2023-04-15T03:04:00.514Z,8.10
2023-04-15T03:07:02.827Z,8.00
2023-04-15T03:10:04.691Z,8.10
2023-04-15T03:13:06.450Z,7.90
2023-04-15T03:16:08.193Z,8.00
2023-04-15T03:19:09.774Z,6.60
2023-04-15T03:22:11.407Z,7.70
2023-04-15T03:25:12.947Z,7.80
2023-04-15T03:28:14.520Z,7.80
2023-04-15T03:31:16.214Z,9.20
2023-04-15T03:34:18.236Z,7.70
2023-04-15T03:37:19.863Z,9.80
2023-04-15T03:40:22.124Z,7.40
2023-04-15T03:43:23.724Z,7.60
2023-04-15T03:46:25.621Z,7.40
2023-04-15T03:49:27.248Z,7.50
2023-04-15T03:52:28.786Z,7.60
2023-04-15T03:55:30.499Z,7.60
2023-04-15T03:58:32.064Z,7.50
2023-04-15T04:01:33.687Z,7.70
2023-04-15T04:04:35.361Z,7.20
2023-04-15T04:07:36.963Z,7.50
2023-04-15T04:10:38.527Z,7.40
2023-04-15T04:13:40.563Z,7.00
2023-04-15T04:16:42.225Z,7.80
2023-04-15T04:19:43.810Z,7.70
2023-04-15T04:22:45.602Z,7.40
2023-04-15T04:25:47.529Z,7.20
2023-04-15T04:28:49.096Z,7.30
2023-04-15T04:31:50.909Z,7.50
2023-04-15T04:34:52.513Z,7.10
2023-04-15T04:37:54.170Z,7.40
2023-04-15T04:40:55.899Z,8.40
2023-04-15T04:43:57.445Z,7.30
2023-04-15T04:46:59.020Z,7.20
2023-04-15T04:50:00.731Z,5.40
2023-04-15T04:53:02.395Z,7.40
2023-04-15T04:56:04.490Z,7.10
2023-04-15T04:59:06.969Z,7.30
2023-04-15T05:02:08.630Z,7.10
2023-04-15T05:05:11.701Z,7.40
2023-04-15T05:08:13.223Z,7.40
2023-04-15T05:11:14.843Z,7.20
2023-04-15T05:14:16.483Z,7.10
2023-04-15T05:17:18.065Z,7.10
2023-04-15T05:20:19.831Z,7.30
2023-04-15T05:23:21.410Z,7.40
2023-04-15T05:26:24.239Z,6.80
2023-04-15T05:29:25.759Z,7.40
2023-04-15T05:32:27.410Z,5.90
2023-04-15T05:35:29.041Z,6.70
2023-04-15T05:38:30.997Z,6.80
2023-04-15T05:41:32.593Z,6.90
2023-04-15T05:44:34.342Z,7.40
2023-04-15T05:47:37.334Z,7.40
2023-04-15T05:50:41.928Z,7.20
2023-04-15T05:53:43.576Z,7.20
2023-04-15T05:56:45.384Z,7.20
2023-04-15T05:59:46.918Z,6.90
2023-04-15T06:02:48.759Z,7.10
2023-04-15T06:05:50.457Z,7.20
2023-04-15T06:08:52.092Z,7.40
2023-04-15T06:11:53.679Z,7.50
2023-04-15T06:14:55.200Z,7.40
2023-04-15T06:17:57.028Z,7.50
2023-04-15T06:20:58.875Z,7.90
2023-04-15T06:24:01.559Z,7.50
2023-04-15T06:27:13.611Z,8.30
2023-04-15T06:30:15.345Z,8.30
2023-04-15T06:33:16.921Z,8.10
2023-04-15T06:36:19.314Z,8.50
2023-04-15T06:39:20.923Z,7.90
2023-04-15T06:42:23.096Z,8.40
2023-04-15T06:45:25.765Z,8.60
2023-04-15T06:48:27.542Z,8.50
2023-04-15T06:51:29.187Z,9.00
2023-04-15T06:54:30.814Z,8.80
2023-04-15T06:57:34.866Z,9.10
2023-04-15T07:00:38.926Z,9.40
2023-04-15T07:03:41.805Z,9.30
2023-04-15T07:06:43.575Z,9.70
2023-04-15T07:09:45.385Z,9.50
2023-04-15T07:12:48.397Z,9.70
2023-04-15T07:15:49.978Z,9.50
2023-04-15T07:18:51.627Z,9.60
2023-04-15T07:21:53.263Z,9.50
2023-04-15T07:24:57.983Z,9.40
2023-04-15T07:27:59.546Z,12.10
2023-04-15T07:31:01.131Z,9.50
2023-04-15T07:34:03.627Z,9.70
2023-04-15T07:37:05.249Z,9.70
2023-04-15T07:40:08.824Z,9.70
2023-04-15T07:43:10.755Z,9.40
2023-04-15T07:46:12.377Z,9.80
2023-04-15T07:49:14.373Z,10.00
2023-04-15T07:52:16.583Z,11.20
2023-04-15T07:55:19.985Z,9.90
2023-04-15T07:58:21.544Z,10.30
2023-04-15T08:01:23.125Z,10.40
2023-04-15T08:04:24.980Z,10.20
2023-04-15T08:07:27.260Z,10.80
2023-04-15T08:10:29.948Z,10.60
2023-04-15T08:13:31.514Z,10.50
2023-04-15T08:16:33.379Z,10.60
2023-04-15T08:19:35.550Z,10.90
2023-04-15T08:22:37.108Z,10.90
2023-04-15T08:25:38.653Z,11.00
2023-04-15T08:28:41.681Z,12.90
2023-04-15T08:31:43.530Z,11.50
2023-04-15T08:34:45.130Z,11.40
2023-04-15T08:37:46.706Z,11.40
2023-04-15T08:40:48.481Z,11.60
2023-04-15T08:43:54.714Z,12.00
2023-04-15T08:46:57.597Z,11.50
2023-04-15T08:49:59.844Z,11.60
2023-04-15T08:53:02.401Z,11.90
2023-04-15T08:56:07.376Z,12.00
2023-04-15T08:59:09.695Z,11.70
2023-04-15T09:02:12.417Z,12.30
2023-04-15T09:05:14.349Z,12.00
2023-04-15T09:08:16.170Z,13.90
2023-04-15T09:11:20.000Z,12.10
2023-04-15T09:14:21.834Z,11.90
2023-04-15T09:17:24.655Z,12.20
2023-04-15T09:20:26.324Z,12.30
2023-04-15T09:23:27.866Z,13.30
2023-04-15T09:26:36.886Z,12.40
2023-04-15T09:29:41.206Z,12.40
2023-04-15T09:32:53.493Z,12.50
2023-04-15T09:35:58.888Z,12.10
2023-04-15T09:39:01.652Z,12.40
2023-04-15T09:42:09.656Z,12.40
2023-04-15T09:45:13.756Z,12.60
2023-04-15T09:48:21.393Z,12.00
2023-04-15T09:51:35.560Z,12.50
2023-04-15T09:54:38.719Z,12.70
2023-04-15T09:57:49.790Z,12.40
2023-04-15T10:00:52.955Z,12.60
2023-04-15T10:03:56.928Z,12.60
2023-04-15T10:07:00.261Z,12.50
2023-04-15T10:10:03.660Z,12.00
2023-04-15T10:13:06.902Z,11.90
2023-04-15T10:16:14.720Z,12.50
2023-04-15T10:19:20.433Z,12.30
2023-04-15T10:22:26.528Z,12.20
2023-04-15T10:25:29.378Z,12.80
2023-04-15T10:28:30.967Z,12.90
2023-04-15T10:31:32.853Z,13.00
2023-04-15T10:34:35.400Z,12.60
2023-04-15T10:37:38.509Z,12.60
2023-04-15T10:40:40.409Z,12.30
2023-04-15T10:43:51.345Z,12.30
2023-04-15T10:46:53.068Z,12.20
2023-04-15T10:50:01.140Z,11.90
2023-04-15T10:53:04.842Z,12.20
2023-04-15T10:56:06.816Z,11.90
2023-04-15T10:59:08.781Z,12.50
2023-04-15T11:02:13.916Z,12.00
2023-04-15T11:05:16.989Z,13.10
2023-04-15T11:08:19.655Z,12.10
2023-04-15T11:11:21.404Z,12.00
2023-04-15T11:14:22.959Z,12.20
2023-04-15T11:17:29.023Z,12.50
2023-04-15T11:20:32.382Z,12.30
2023-04-15T11:23:46.910Z,12.10
2023-04-15T11:26:48.625Z,11.80
2023-04-15T11:29:50.385Z,11.90
2023-04-15T11:32:53.622Z,11.90
2023-04-15T11:35:55.397Z,12.20
2023-04-15T11:38:59.064Z,11.60
2023-04-15T11:42:00.625Z,11.50
2023-04-15T11:45:14.172Z,11.80
2023-04-15T11:48:15.755Z,11.40
2023-04-15T11:51:17.429Z,11.50
2023-04-15T11:54:19.669Z,11.50
2023-04-15T11:57:21.347Z,11.40
2023-04-15T12:00:23.113Z,11.40
2023-04-15T12:03:30.989Z,11.90
2023-04-15T12:06:37.161Z,11.30
2023-04-15T12:09:39.743Z,11.00
2023-04-15T12:12:41.533Z,11.30
2023-04-15T12:15:43.587Z,11.10
2023-04-15T12:18:52.306Z,11.10
2023-04-15T12:22:00.533Z,10.90
2023-04-15T12:25:02.952Z,11.50
2023-04-15T12:28:11.361Z,11.30
2023-04-15T12:31:14.308Z,11.20
2023-04-15T12:34:16.788Z,10.80
2023-04-15T12:37:18.678Z,10.60
2023-04-15T12:40:20.590Z,10.50
2023-04-15T12:43:22.275Z,10.90
2023-04-15T12:46:23.922Z,11.10
2023-04-15T12:49:26.630Z,10.80
2023-04-15T12:52:28.330Z,10.80
2023-04-15T12:55:30.527Z,10.90
2023-04-15T12:58:32.543Z,12.30
2023-04-15T13:01:34.168Z,11.60
2023-04-15T13:04:35.963Z,10.90
2023-04-15T13:07:37.585Z,11.40
2023-04-15T13:10:39.456Z,11.00
2023-04-15T13:13:41.305Z,11.30
2023-04-15T13:16:42.905Z,11.30
2023-04-15T13:19:44.530Z,11.00
2023-04-15T13:22:46.200Z,11.30
2023-04-15T13:25:47.845Z,11.70
2023-04-15T13:28:49.474Z,11.10
2023-04-15T13:31:51.341Z,11.20
2023-04-15T13:34:53.524Z,11.60
2023-04-15T13:37:59.802Z,11.40
2023-04-15T13:41:01.480Z,11.50
2023-04-15T13:44:03.317Z,11.00
2023-04-15T13:47:05.431Z,11.30
2023-04-15T13:50:07.526Z,11.30
2023-04-15T13:53:09.110Z,11.20
2023-04-15T13:56:10.714Z,11.00
2023-04-15T13:59:12.837Z,11.30
2023-04-15T14:02:14.564Z,10.90
2023-04-15T14:05:16.194Z,11.20
2023-04-15T14:08:17.778Z,11.60
2023-04-15T14:11:19.311Z,11.30
2023-04-15T14:14:21.068Z,11.60
2023-04-15T14:17:22.770Z,11.60
2023-04-15T14:20:24.379Z,11.30
2023-04-15T14:23:25.979Z,10.80
2023-04-15T14:26:27.563Z,11.00
2023-04-15T14:29:29.283Z,11.10
2023-04-15T14:32:30.883Z,11.20
2023-04-15T14:35:32.794Z,11.30
2023-04-15T14:38:38.462Z,11.30
2023-04-15T14:41:40.074Z,11.00
2023-04-15T14:44:41.612Z,11.10
2023-04-15T14:47:43.488Z,10.90
2023-04-15T14:50:45.253Z,10.90
2023-04-15T14:53:46.844Z,11.00
2023-04-15T14:56:48.401Z,12.70
2023-04-15T14:59:50.038Z,10.50
2023-04-15T15:02:51.701Z,10.60
2023-04-15T15:05:53.494Z,10.60
2023-04-15T15:08:55.490Z,10.50
2023-04-15T15:11:57.262Z,11.80
2023-04-15T15:15:00.454Z,12.30
2023-04-15T15:18:03.477Z,10.80
2023-04-15T15:21:05.366Z,10.40
2023-04-15T15:24:06.939Z,10.50
2023-04-15T15:27:08.689Z,10.70
2023-04-15T15:30:10.766Z,10.80
2023-04-15T15:33:12.376Z,10.50
2023-04-15T15:36:14.014Z,12.90
2023-04-15T15:39:16.252Z,10.30
2023-04-15T15:42:19.221Z,10.10
2023-04-15T15:45:20.890Z,10.10
2023-04-15T15:48:25.674Z,10.30
2023-04-15T15:51:27.538Z,10.20
2023-04-15T15:54:29.284Z,10.00
2023-04-15T15:57:30.813Z,9.80
2023-04-15T16:00:33.748Z,10.10
2023-04-15T16:03:35.754Z,9.90
2023-04-15T16:06:37.486Z,10.00
2023-04-15T16:09:40.965Z,10.20
2023-04-15T16:12:42.517Z,10.30
2023-04-15T16:15:44.356Z,11.20
2023-04-15T16:18:45.884Z,10.30
2023-04-15T16:21:47.828Z,10.20
2023-04-15T16:24:49.398Z,9.90
2023-04-15T16:28:03.005Z,9.90
2023-04-15T16:31:13.414Z,9.70
2023-04-15T16:34:15.942Z,10.10
2023-04-15T16:37:17.476Z,10.00
2023-04-15T16:40:19.106Z,10.00
2023-04-15T16:43:24.878Z,10.10
2023-04-15T16:46:26.728Z,10.10
2023-04-15T16:49:29.028Z,10.00
2023-04-15T16:52:30.672Z,11.60
2023-04-15T16:55:32.226Z,9.50
2023-04-15T16:58:33.747Z,10.00
2023-04-15T17:01:36.094Z,9.80
2023-04-15T17:04:38.151Z,9.50
2023-04-15T17:07:39.969Z,9.60
2023-04-15T17:10:41.629Z,9.80
2023-04-15T17:13:46.575Z,10.20
2023-04-15T17:16:48.334Z,9.80
2023-04-15T17:19:50.151Z,10.00
2023-04-15T17:22:52.427Z,10.00
2023-04-15T17:25:54.107Z,9.50
2023-04-15T17:28:55.956Z,9.80
2023-04-15T17:32:05.675Z,10.90
2023-04-15T17:35:07.716Z,11.00
2023-04-15T17:38:11.651Z,9.70
2023-04-15T17:41:13.473Z,9.60
2023-04-15T17:44:15.110Z,9.60
2023-04-15T17:47:17.082Z,9.00
2023-04-15T17:50:18.678Z,9.50
2023-04-15T17:53:20.260Z,9.50
2023-04-15T17:56:21.808Z,9.30
2023-04-15T17:59:23.684Z,9.30
2023-04-15T18:02:25.598Z,9.30
2023-04-15T18:05:27.400Z,9.20
2023-04-15T18:08:29.168Z,10.60
2023-04-15T18:11:33.344Z,8.80
2023-04-15T18:14:35.932Z,9.20
2023-04-15T18:17:37.580Z,9.20
2023-04-15T18:20:39.159Z,9.00
2023-04-15T18:23:40.680Z,9.20
2023-04-15T18:26:42.258Z,8.80
2023-04-15T18:29:43.875Z,9.00
2023-04-15T18:32:45.508Z,9.00
2023-04-15T18:38:57.707Z,9.00
2023-04-15T18:41:59.240Z,9.30
2023-04-15T18:45:00.809Z,9.40
2023-04-15T18:48:03.015Z,9.30
2023-04-15T18:51:04.678Z,9.10
2023-04-15T18:54:06.433Z,8.90
2023-04-15T18:57:08.107Z,9.20
2023-04-15T19:00:11.619Z,9.20
2023-04-15T19:03:13.261Z,9.10
2023-04-15T19:06:14.875Z,8.70
2023-04-15T19:09:16.824Z,8.70
2023-04-15T19:12:18.355Z,8.80
2023-04-15T19:15:20.226Z,8.90
2023-04-15T19:18:21.869Z,8.60
2023-04-15T19:21:23.451Z,8.60
2023-04-15T19:24:25.139Z,9.10
2023-04-15T19:27:27.146Z,10.00
2023-04-15T19:30:28.893Z,8.50
2023-04-15T19:33:33.164Z,8.70
2023-04-15T19:36:34.947Z,8.60
2023-04-15T19:39:36.514Z,8.90
2023-04-15T19:42:38.057Z,8.90
2023-04-15T19:45:39.674Z,8.40
2023-04-15T19:48:43.532Z,8.70
2023-04-15T19:51:45.691Z,9.00
2023-04-15T19:54:47.293Z,8.90
2023-04-15T19:57:48.839Z,8.90
2023-04-15T20:00:50.503Z,9.00
2023-04-15T20:03:54.302Z,8.50
2023-04-15T20:06:56.105Z,9.00
2023-04-15T20:09:58.203Z,8.70
2023-04-15T20:12:59.766Z,8.70
2023-04-15T20:16:01.429Z,8.70
2023-04-15T20:19:08.435Z,9.50
2023-04-15T20:22:10.061Z,8.40
2023-04-15T20:25:11.688Z,8.90
2023-04-15T20:28:13.697Z,9.00
2023-04-15T20:31:15.368Z,8.80
2023-04-15T20:34:17.063Z,8.90
2023-04-15T20:37:18.628Z,8.60
2023-04-15T20:40:20.281Z,8.70
2023-04-15T20:43:21.849Z,8.90
2023-04-15T20:46:24.607Z,9.30
2023-04-15T20:49:28.313Z,8.90
2023-04-15T20:52:29.900Z,8.50
2023-04-15T20:55:31.555Z,8.80
2023-04-15T20:58:33.077Z,8.70
2023-04-15T21:01:34.634Z,8.60
2023-04-15T21:04:38.235Z,8.30
2023-04-15T21:07:40.902Z,8.50
2023-04-15T21:10:44.826Z,8.80
2023-04-15T21:13:46.422Z,8.70
2023-04-15T21:16:48.186Z,8.70
2023-04-15T21:19:49.938Z,10.00
2023-04-15T21:22:52.839Z,8.60
2023-04-15T21:25:54.457Z,8.80
2023-04-15T21:28:56.302Z,8.40
2023-04-15T21:31:57.914Z,8.60
2023-04-15T21:34:59.533Z,8.50
2023-04-15T21:38:01.134Z,8.50
2023-04-15T21:41:06.360Z,8.70
2023-04-15T21:44:08.052Z,10.20
2023-04-15T21:47:09.748Z,8.50
2023-04-15T21:50:11.574Z,8.80
2023-04-15T21:53:13.364Z,8.80
2023-04-15T21:56:14.929Z,8.80
2023-04-15T21:59:16.527Z,8.60
2023-04-15T22:02:18.191Z,9.80
2023-04-15T22:05:20.017Z,8.60
2023-04-15T22:08:21.621Z,8.90
2023-04-15T22:11:27.174Z,10.00
2023-04-15T22:14:32.699Z,11.10
2023-04-15T22:17:34.290Z,8.80
2023-04-15T22:20:35.984Z,8.90
2023-04-15T22:23:37.985Z,9.30
2023-04-15T22:26:39.567Z,8.40
2023-04-15T22:29:41.112Z,8.70
2023-04-15T22:32:43.001Z,8.60
2023-04-15T22:35:44.547Z,8.70
2023-04-15T22:38:46.149Z,8.70
2023-04-15T22:41:50.743Z,8.40
2023-04-15T22:44:52.322Z,9.00
2023-04-15T22:47:54.018Z,8.90
2023-04-15T22:50:58.911Z,8.70
2023-04-15T22:54:00.561Z,9.00
2023-04-15T22:57:02.160Z,8.50
2023-04-15T23:00:04.287Z,8.60
2023-04-15T23:06:09.752Z,8.70
2023-04-15T23:09:11.500Z,8.50
2023-04-15T23:12:13.852Z,9.10
2023-04-15T23:15:15.678Z,8.90
2023-04-15T23:18:17.243Z,9.00
2023-04-15T23:21:18.973Z,9.00
2023-04-15T23:24:21.025Z,8.90
2023-04-15T23:27:22.826Z,8.70
2023-04-15T23:30:24.447Z,8.80
2023-04-15T23:33:26.177Z,8.80
2023-04-15T23:36:27.818Z,8.90
2023-04-15T23:39:30.405Z,8.80
2023-04-15T23:42:31.982Z,9.20
2023-04-15T23:45:33.500Z,9.20
2023-04-15T23:48:35.358Z,8.80
2023-04-15T23:51:38.894Z,8.90
2023-04-15T23:54:40.449Z,8.90
2023-04-15T23:57:41.995Z,8.70
